PWSweather.com
Personal Weather Stations
Station Observations
TOSCANA255
MontespertoliIT 50025

MontespertoliIT 50025

Lat: 43.6454582, Lon: 11.0691319

Elevation: 843

Station Type: PCE-FWS20

http://www.meteomontespertoli.it

Latest ConditionsUpdated 2:55:06 PM GMT+01:01 Tuesday, Jan 23, 2018
Currently Today's Max Today's Min Today's Average
Temperature 59.4°F15.2°C 59.4°F15.2°C 42.4°F5.8°C 54.2°F12.3°C
Dew Point 32.4°F0.2°C 38.0°F3.3°C 31.4°F-0.3°C 34.7°F1.5°C
Winds 3.2 mph NW5.1 kmh NW 4.6 mph E7.4 kmh E - 2.1 mph 3.4 kmh
Wind Gusts 4.1 mph6.6 kmh 5.9 mph9.5 kmh - -
Humidity 36% 82% 35% 49%
Pressure 30.19 in1022.4 mb 30.19 in1022.4 mb 30.06 in1017.9 mb -
Hour Temp Dew Point Humidity Winds Wind Gusts Pressure Precip Precip Rate Daily Precip Total
02:55 PM 59.4°F15.2°C 32.4°F0.2°C 36% 3.2 mph NW5.1 kmh NW 4.1 mph6.6 kmh 30.19 in1022.4 mb 0.00 in0.0 mm 0.00 in0.0 mm 0.00 in0.0 mm
02:50 PM 59.4°F15.2°C 32.4°F0.2°C 36% 3.2 mph E5.1 kmh E 4.6 mph7.4 kmh 30.19 in1022.4 mb 0.00 in0.0 mm 0.00 in0.0 mm 0.00 in0.0 mm
02:47 PM 59.2°F15.1°C 32.9°F0.5°C 37% 3.7 mph NW6.0 kmh NW 5.0 mph8.0 kmh 30.19 in1022.4 mb 0.00 in0.0 mm 0.00 in0.0 mm 0.00 in0.0 mm
02:45 PM 59.0°F15.0°C 31.4°F-0.3°C 35% 3.7 mph 6.0 kmh 5.0 mph8.0 kmh 30.18 in1022.0 mb 0.00 in0.0 mm 0.00 in0.0 mm 0.00 in0.0 mm
02:42 PM 59.0°F15.0°C 32.1°F0.1°C 36% 3.2 mph 5.1 kmh 5.0 mph8.0 kmh 30.18 in1022.0 mb 0.00 in0.0 mm 0.00 in0.0 mm 0.00 in0.0 mm
02:37 PM 59.0°F15.0°C 32.1°F0.1°C 36% 4.1 mph NW6.6 kmh NW 5.0 mph8.0 kmh 30.18 in1022.0 mb 0.00 in0.0 mm 0.00 in0.0 mm 0.00 in0.0 mm
02:35 PM 59.0°F15.0°C 31.4°F-0.3°C 35% 2.7 mph W4.3 kmh W 4.1 mph6.6 kmh 30.18 in1022.0 mb 0.00 in0.0 mm 0.00 in0.0 mm 0.00 in0.0 mm
02:32 PM 59.0°F15.0°C 32.1°F0.1°C 36% 3.7 mph 6.0 kmh 5.9 mph9.5 kmh 30.18 in1022.0 mb 0.00 in0.0 mm 0.00 in0.0 mm 0.00 in0.0 mm
02:29 PM 59.0°F15.0°C 32.1°F0.1°C 36% 2.7 mph E4.3 kmh E 3.7 mph6.0 kmh 30.18 in1022.0 mb 0.00 in0.0 mm 0.00 in0.0 mm 0.00 in0.0 mm
02:27 PM 59.0°F15.0°C 32.1°F0.1°C 36% 2.3 mph W3.7 kmh W 3.2 mph5.1 kmh 30.18 in1022.0 mb 0.00 in0.0 mm 0.00 in0.0 mm 0.00 in0.0 mm
02:19 PM 59.2°F15.1°C 32.9°F0.5°C 37% 1.8 mph W2.9 kmh W 3.2 mph5.1 kmh 30.18 in1022.0 mb 0.00 in0.0 mm 0.00 in0.0 mm 0.00 in0.0 mm
02:17 PM 59.0°F15.0°C 32.8°F0.4°C 37% 0.5 mph 0.8 kmh 1.4 mph2.3 kmh 30.18 in1022.0 mb 0.00 in0.0 mm 0.00 in0.0 mm 0.00 in0.0 mm
02:12 PM 59.2°F15.1°C 32.3°F0.2°C 36% 0.9 mph W1.4 kmh W 2.3 mph3.7 kmh 30.18 in1022.0 mb 0.00 in0.0 mm 0.00 in0.0 mm 0.00 in0.0 mm
02:09 PM 59.4°F15.2°C 33.1°F0.6°C 37% 2.3 mph WNW3.7 kmh WNW 3.7 mph6.0 kmh 30.18 in1022.0 mb 0.00 in0.0 mm 0.00 in0.0 mm 0.00 in0.0 mm
02:07 PM 59.2°F15.1°C 32.3°F0.2°C 36% 1.4 mph 2.3 kmh 2.3 mph3.7 kmh 30.18 in1022.0 mb 0.00 in0.0 mm 0.00 in0.0 mm 0.00 in0.0 mm
01:59 PM 59.4°F15.2°C 32.4°F0.2°C 36% 2.3 mph NW3.7 kmh NW 3.7 mph6.0 kmh 30.18 in1022.0 mb 0.00 in0.0 mm 0.00 in0.0 mm 0.00 in0.0 mm
01:57 PM 59.4°F15.2°C 33.1°F0.6°C 37% 3.2 mph E5.1 kmh E 4.6 mph7.4 kmh 30.18 in1022.0 mb 0.00 in0.0 mm 0.00 in0.0 mm 0.00 in0.0 mm
01:54 PM 59.2°F15.1°C 34.9°F1.6°C 40% 2.3 mph W3.7 kmh W 3.7 mph6.0 kmh 30.18 in1022.0 mb 0.00 in0.0 mm 0.00 in0.0 mm 0.00 in0.0 mm
01:52 PM 58.6°F14.8°C 35.0°F1.7°C 41% 0.9 mph SW1.4 kmh SW 1.8 mph2.9 kmh 30.18 in1022.0 mb 0.00 in0.0 mm 0.00 in0.0 mm 0.00 in0.0 mm
01:49 PM 58.3°F14.6°C 34.7°F1.5°C 41% 0.5 mph E0.8 kmh E 1.4 mph2.3 kmh 30.17 in1021.7 mb 0.00 in0.0 mm 0.00 in0.0 mm 0.00 in0.0 mm
01:47 PM 57.9°F14.4°C 33.8°F1.0°C 40% 1.4 mph E2.3 kmh E 1.8 mph2.9 kmh 30.17 in1021.7 mb 0.00 in0.0 mm 0.00 in0.0 mm 0.00 in0.0 mm
01:44 PM 57.7°F14.3°C 33.6°F0.9°C 40% 1.4 mph E2.3 kmh E 2.3 mph3.7 kmh 30.17 in1021.7 mb 0.00 in0.0 mm 0.00 in0.0 mm 0.00 in0.0 mm
01:42 PM 57.7°F14.3°C 34.2°F1.2°C 41% 3.7 mph 6.0 kmh 5.0 mph8.0 kmh 30.17 in1021.7 mb 0.00 in0.0 mm 0.00 in0.0 mm 0.00 in0.0 mm
01:39 PM 57.6°F14.2°C 34.0°F1.1°C 41% 2.7 mph 4.3 kmh 3.7 mph6.0 kmh 30.17 in1021.7 mb 0.00 in0.0 mm 0.00 in0.0 mm 0.00 in0.0 mm
01:37 PM 57.6°F14.2°C 34.0°F1.1°C 41% 3.2 mph NW5.1 kmh NW 5.0 mph8.0 kmh 30.17 in1021.7 mb 0.00 in0.0 mm 0.00 in0.0 mm 0.00 in0.0 mm
01:34 PM 57.4°F14.1°C 33.9°F1.1°C 41% 2.7 mph W4.3 kmh W 4.1 mph6.6 kmh 30.17 in1021.7 mb 0.00 in0.0 mm 0.00 in0.0 mm 0.00 in0.0 mm
01:17 PM 56.7°F13.7°C 36.7°F2.6°C 47% 3.2 mph E5.1 kmh E 5.5 mph8.9 kmh 30.17 in1021.7 mb 0.00 in0.0 mm 0.00 in0.0 mm 0.00 in0.0 mm
01:12 PM 56.3°F13.5°C 36.3°F2.4°C 47% 2.7 mph 4.3 kmh 3.7 mph6.0 kmh 30.17 in1021.7 mb 0.00 in0.0 mm 0.00 in0.0 mm 0.00 in0.0 mm
01:09 PM 56.3°F13.5°C 36.9°F2.7°C 48% 1.8 mph 2.9 kmh 2.3 mph3.7 kmh 30.17 in1021.7 mb 0.00 in0.0 mm 0.00 in0.0 mm 0.00 in0.0 mm
12:59 PM 55.9°F13.3°C 36.0°F2.2°C 47% 2.3 mph W3.7 kmh W 3.7 mph6.0 kmh 30.17 in1021.7 mb 0.00 in0.0 mm 0.00 in0.0 mm 0.00 in0.0 mm
12:57 PM 56.1°F13.4°C 36.2°F2.3°C 47% 3.7 mph 6.0 kmh 5.5 mph8.9 kmh 30.17 in1021.7 mb 0.00 in0.0 mm 0.00 in0.0 mm 0.00 in0.0 mm
12:52 PM 55.9°F13.3°C 34.9°F1.6°C 45% 2.7 mph NW4.3 kmh NW 3.7 mph6.0 kmh 30.17 in1021.7 mb 0.00 in0.0 mm 0.00 in0.0 mm 0.00 in0.0 mm
12:49 PM 55.8°F13.2°C 34.7°F1.5°C 45% 3.7 mph E6.0 kmh E 5.9 mph9.5 kmh 30.17 in1021.7 mb 0.00 in0.0 mm 0.00 in0.0 mm 0.00 in0.0 mm
12:47 PM 55.6°F13.1°C 34.0°F1.1°C 44% 2.3 mph E3.7 kmh E 4.1 mph6.6 kmh 30.17 in1021.7 mb 0.00 in0.0 mm 0.00 in0.0 mm 0.00 in0.0 mm
12:44 PM 55.6°F13.1°C 34.0°F1.1°C 44% 3.7 mph E6.0 kmh E 4.6 mph7.4 kmh 30.17 in1021.7 mb 0.00 in0.0 mm 0.00 in0.0 mm 0.00 in0.0 mm
12:42 PM 55.6°F13.1°C 34.0°F1.1°C 44% 4.6 mph E7.4 kmh E 5.5 mph8.9 kmh 30.18 in1022.0 mb 0.00 in0.0 mm 0.00 in0.0 mm 0.00 in0.0 mm
12:39 PM 55.8°F13.2°C 34.2°F1.2°C 44% 4.1 mph E6.6 kmh E 5.5 mph8.9 kmh 30.17 in1021.7 mb 0.00 in0.0 mm 0.00 in0.0 mm 0.00 in0.0 mm
12:29 PM 54.9°F12.7°C 32.8°F0.4°C 43% 3.2 mph NW5.1 kmh NW 5.0 mph8.0 kmh 30.18 in1022.0 mb 0.00 in0.0 mm 0.00 in0.0 mm 0.00 in0.0 mm
12:26 PM 54.9°F12.7°C 32.8°F0.4°C 43% 2.3 mph W3.7 kmh W 3.7 mph6.0 kmh 30.18 in1022.0 mb 0.00 in0.0 mm 0.00 in0.0 mm 0.00 in0.0 mm
12:21 PM 54.9°F12.7°C 35.6°F2.0°C 48% 4.1 mph W6.6 kmh W 5.5 mph8.9 kmh 30.19 in1022.4 mb 0.00 in0.0 mm 0.00 in0.0 mm 0.00 in0.0 mm
12:19 PM 54.7°F12.6°C 35.4°F1.9°C 48% 2.3 mph 3.7 kmh 2.7 mph4.3 kmh 30.18 in1022.0 mb 0.00 in0.0 mm 0.00 in0.0 mm 0.00 in0.0 mm
12:16 PM 54.5°F12.5°C 35.2°F1.8°C 48% 0.5 mph E0.8 kmh E 1.4 mph2.3 kmh 30.18 in1022.0 mb 0.00 in0.0 mm 0.00 in0.0 mm 0.00 in0.0 mm
12:14 PM 54.1°F12.3°C 35.4°F1.9°C 49% 2.7 mph WNW4.3 kmh WNW 3.7 mph6.0 kmh 30.18 in1022.0 mb 0.00 in0.0 mm 0.00 in0.0 mm 0.00 in0.0 mm
12:11 PM 53.8°F12.1°C 35.1°F1.7°C 49% 0.9 mph NW1.4 kmh NW 2.3 mph3.7 kmh 30.18 in1022.0 mb 0.00 in0.0 mm 0.00 in0.0 mm 0.00 in0.0 mm
10:28 AM 51.3°F10.7°C 37.9°F3.3°C 60% Calm Calm 0.5 mph0.8 kmh 30.16 in1021.3 mb 0.00 in0.0 mm 0.00 in0.0 mm 0.00 in0.0 mm
10:26 AM 51.4°F10.8°C 38.0°F3.3°C 60% 0.9 mph W1.4 kmh W 1.8 mph2.9 kmh 30.16 in1021.3 mb 0.00 in0.0 mm 0.00 in0.0 mm 0.00 in0.0 mm
10:23 AM 51.3°F10.7°C 37.9°F3.3°C 60% 0.9 mph S1.4 kmh S 1.4 mph2.3 kmh 30.16 in1021.3 mb 0.00 in0.0 mm 0.00 in0.0 mm 0.00 in0.0 mm
10:21 AM 50.7°F10.4°C 37.4°F3.0°C 60% Calm Calm -- 30.16 in1021.3 mb 0.00 in0.0 mm 0.00 in0.0 mm 0.00 in0.0 mm
10:18 AM 50.4°F10.2°C 37.0°F2.8°C 60% Calm Calm -- 30.16 in1021.3 mb 0.00 in0.0 mm 0.00 in0.0 mm 0.00 in0.0 mm
10:16 AM 50.2°F10.1°C 36.8°F2.7°C 60% Calm Calm -- 30.17 in1021.7 mb 0.00 in0.0 mm 0.00 in0.0 mm 0.00 in0.0 mm
10:13 AM 50.2°F10.1°C 36.4°F2.4°C 59% 0.5 mph 0.8 kmh 0.9 mph1.4 kmh 30.16 in1021.3 mb 0.00 in0.0 mm 0.00 in0.0 mm 0.00 in0.0 mm
09:33 AM 48.6°F9.2°C 36.9°F2.7°C 64% 0.5 mph SE0.8 kmh SE 1.4 mph2.3 kmh 30.15 in1021.0 mb 0.00 in0.0 mm 0.00 in0.0 mm 0.00 in0.0 mm
09:31 AM 48.2°F9.0°C 37.0°F2.8°C 65% 0.5 mph 0.8 kmh 0.9 mph1.4 kmh 30.15 in1021.0 mb 0.00 in0.0 mm 0.00 in0.0 mm 0.00 in0.0 mm
09:28 AM 47.5°F8.6°C 36.7°F2.6°C 66% Calm Calm 0.5 mph0.8 kmh 30.15 in1021.0 mb 0.00 in0.0 mm 0.00 in0.0 mm 0.00 in0.0 mm
09:26 AM 47.1°F8.4°C 36.0°F2.2°C 65% Calm Calm 0.5 mph0.8 kmh 30.15 in1021.0 mb 0.00 in0.0 mm 0.00 in0.0 mm 0.00 in0.0 mm
09:23 AM 46.8°F8.2°C 35.2°F1.8°C 64% Calm Calm 0.5 mph0.8 kmh 30.15 in1021.0 mb 0.00 in0.0 mm 0.00 in0.0 mm 0.00 in0.0 mm
09:20 AM 46.6°F8.1°C 35.1°F1.7°C 64% 0.5 mph E0.8 kmh E 0.9 mph1.4 kmh 30.15 in1021.0 mb 0.00 in0.0 mm 0.00 in0.0 mm 0.00 in0.0 mm
09:13 AM 46.6°F8.1°C 34.7°F1.5°C 63% 0.9 mph 1.4 kmh 1.8 mph2.9 kmh 30.15 in1021.0 mb 0.00 in0.0 mm 0.00 in0.0 mm 0.00 in0.0 mm
09:10 AM 46.4°F8.0°C 34.5°F1.4°C 63% 2.3 mph NW3.7 kmh NW 3.7 mph6.0 kmh 30.14 in1020.7 mb 0.00 in0.0 mm 0.00 in0.0 mm 0.00 in0.0 mm
09:08 AM 46.0°F7.8°C 34.9°F1.6°C 65% 2.3 mph E3.7 kmh E 3.7 mph6.0 kmh 30.14 in1020.7 mb 0.00 in0.0 mm 0.00 in0.0 mm 0.00 in0.0 mm
09:05 AM 45.7°F7.6°C 35.7°F2.1°C 68% 2.3 mph E3.7 kmh E 3.2 mph5.1 kmh 30.14 in1020.7 mb 0.00 in0.0 mm 0.00 in0.0 mm 0.00 in0.0 mm
08:35 AM 42.6°F5.9°C 37.5°F3.1°C 82% 2.3 mph NW3.7 kmh NW 3.2 mph5.1 kmh 30.14 in1020.7 mb 0.00 in0.0 mm 0.00 in0.0 mm 0.00 in0.0 mm
08:33 AM 42.4°F5.8°C 37.3°F2.9°C 82% 2.3 mph NW3.7 kmh NW 3.2 mph5.1 kmh 30.14 in1020.7 mb 0.00 in0.0 mm 0.00 in0.0 mm 0.00 in0.0 mm
07:02 AM 43.5°F6.4°C 35.1°F1.7°C 72% 0.9 mph 1.4 kmh 1.4 mph2.3 kmh 30.08 in1018.6 mb 0.00 in0.0 mm 0.00 in0.0 mm 0.00 in0.0 mm
04:09 AM 45.5°F7.5°C 36.7°F2.6°C 71% 2.7 mph W4.3 kmh W 3.7 mph6.0 kmh 30.06 in1017.9 mb 0.00 in0.0 mm 0.00 in0.0 mm 0.26 in6.6 mm